Flight Track Log - Related Links

Times and Time Zones

All times are in EDT time to prevent confusion due to time zone crossing. See the N510SR flight status page for this flight to view local times or setup timezone preferences in your user account.

Time Position Orientation Groundspeed Altitude Reporting Facility
EDT Latitude Longitude Course Direction KTS MPH feet Rate Location/Type
Tue 04:00:45 PM 37.6500 -122.4333 228° Southwest 205 236 3,000  Level Northern Cal TRACON
Tue 04:01:45 PM 37.6667 -122.5167 284° West 246 283 4,900 2,533 Climbing Northern Cal TRACON
Tue 04:02:15 PM 37.6436 -122.5453 225° Southwest 248 285 6,800 3,717 Climbing Oakland Center
Tue 04:03:17 PM 37.5653 -122.5297 171° South 291 335 10,600 3,024 Climbing Oakland Center
Tue 04:04:18 PM 37.4731 -122.4922 162° South 347 399 13,000 2,780 Climbing Oakland Center
Tue 04:05:20 PM 37.3811 -122.4236 149° Southeast 388 447 16,300 2,780 Climbing Oakland Center
Tue 04:06:00 PM 37.1656 -121.8574 228° Southwest  Level Estimated
Tue 04:06:21 PM 37.2875 -122.2906 131° Southeast 426 490 18,700  Level Oakland Center
Tue 04:07:23 PM 37.2056 -122.1694 130° Southeast 454 522 20,800 2,049 Climbing Oakland Center
Tue 04:08:24 PM 37.1189 -122.0447 131° Southeast 473 544 22,900 1,902 Climbing Oakland Center
Tue 04:09:26 PM 37.0317 -121.9194 131° Southeast 478 550 24,700 1,756 Climbing Oakland Center
Tue 04:10:27 PM 36.9428 -121.7922 131° Southeast 485 558 26,500 1,707 Climbing Oakland Center
Tue 04:11:29 PM 36.8531 -121.6667 132° Southeast 485 558 28,200 1,220 Climbing Oakland Center
Tue 04:12:30 PM 36.7458 -121.5167 132° Southeast 495 570 29,000 390 Climbing Oakland Center
Tue 04:13:32 PM 36.6500 -121.3789 131° Southeast 519 597 29,000  Level Oakland Center
Tue 04:14:33 PM 36.5542 -121.2419 131° Southeast 525 604 29,000  Level Oakland Center
Tue 04:15:35 PM 36.4592 -121.1064 131° Southeast 522 601 29,000  Level Oakland Center
Tue 04:16:36 PM 36.3639 -120.9728 132° Southeast 518 596 29,000  Level Oakland Center
Tue 04:17:38 PM 36.2672 -120.8367 131° Southeast 524 603 29,000  Level Oakland Center
Tue 04:18:39 PM 36.1711 -120.7003 131° Southeast 524 603 29,000  Level Oakland Center
Tue 04:19:41 PM 36.0742 -120.5667 132° Southeast 522 601 29,000  Level Oakland Center
Tue 04:20:42 PM 35.9772 -120.4322 132° Southeast 523 602 29,000  Level Oakland Center
Tue 04:21:43 PM 35.8597 -120.2703 132° Southeast 525 604 29,000  Level Oakland Center
Tue 04:22:45 PM 35.7633 -120.1383 132° Southeast 519 597 29,000  Level Oakland Center
Tue 04:23:46 PM 35.6633 -120.0117 134° Southeast 512 589 29,000  Level Oakland Center
Tue 04:24:41 PM 35.5775 -119.9203 139° Southeast 508 585 29,000  Level Los Angeles Center
Tue 04:25:43 PM 35.4619 -119.8211 145° Southeast 503 579 29,000  Level Los Angeles Center
Tue 04:26:45 PM 35.3469 -119.7219 145° Southeast 502 578 29,000  Level Los Angeles Center
Tue 04:27:47 PM 35.2072 -119.6025 145° Southeast 506 582 29,000 -581 Level Los Angeles Center
Tue 04:28:49 PM 35.0919 -119.5033 145° Southeast 506 582 27,800 -1,306 Descending Los Angeles Center
Tue 04:29:51 PM 34.9817 -119.4097 145° Southeast 490 564 26,300 -1,452 Descending Los Angeles Center
Tue 04:30:53 PM 34.8719 -119.3161 145° Southeast 484 557 24,800 -1,452 Descending Los Angeles Center
Tue 04:31:55 PM 34.7644 -119.2261 145° Southeast 473 544 23,300 -1,452 Descending Los Angeles Center
Tue 04:32:57 PM 34.6597 -119.1350 144° Southeast 464 534 21,800 -1,597 Descending Los Angeles Center
Tue 04:33:59 PM 34.5358 -119.0314 145° Southeast 455 524 20,000 -1,597 Descending Los Angeles Center
Tue 04:35:01 PM 34.4342 -118.9461 145° Southeast 445 512 18,500 -1,984 Descending Los Angeles Center
Tue 04:36:03 PM 34.3344 -118.8767 150° Southeast 414 476 15,900 -2,371 Descending Los Angeles Center
Tue 04:37:05 PM 34.2303 -118.8333 161° South 398 458 13,600 -2,226 Descending Los Angeles Center
Tue 04:38:07 PM 34.1300 -118.7981 164° South 379 436 11,300 -1,694 Descending Los Angeles Center
Tue 04:39:09 PM 34.0408 -118.7147 142° Southeast 376 433 10,100 -726 Descending Los Angeles Center
Tue 04:40:11 PM 34.0231 -118.5967 100° East 335 386 9,800 -1,016 Descending Los Angeles Center
Tue 04:41:13 PM 34.0164 -118.4986 95° East 297 342 8,000 -1,597 Descending Los Angeles Center
Tue 04:42:15 PM 34.0253 -118.4164 83° East 248 285 6,500 -1,597 Descending Los Angeles Center
Tue 04:43:17 PM 34.0339 -118.3358 83° East 242 278 4,700 -1,355 Descending Los Angeles Center
Tue 04:44:19 PM 34.0197 -118.2700 105° East 230 265 3,700 -1,059 Descending Los Angeles Center
Tue 04:45:33 PM 33.9650 -118.3039 207° Southwest 204 235 2,300 -1,095 Descending Los Angeles Center
Tue 04:46:36 PM 33.9569 -118.3692 262° West 177 204 1,200 -864 Descending Los Angeles Center
Tue 04:47:38 PM 33.9519 -118.4117 262° West 165 190 500 -677 Descending Los Angeles Center
Tue 04:49:00 PM 33.9425 -118.4081 228° Southwest  Level Estimated
Tue 04:56:00 PM 33.9425 -118.4081 228° Southwest  Level Estimated

Login

Don't have an account? Register now (free) for customized features, flight alerts, and more!